createdAt,value
2023-03-05T00:02:05.933Z,98300.91
2023-03-05T00:07:12.333Z,98297.38
2023-03-05T00:12:15.020Z,98308.88
2023-03-05T00:17:17.812Z,98306.25
2023-03-05T00:22:20.380Z,98307.69
2023-03-05T00:27:22.827Z,98296.88
2023-03-05T00:32:25.629Z,98289.06
2023-03-05T00:37:28.180Z,98292.88
2023-03-05T00:42:30.959Z,98284.38
2023-03-05T00:47:34.239Z,98281.66
2023-03-05T00:52:36.711Z,98289.94
2023-03-05T00:57:39.209Z,98276.22
2023-03-05T01:02:42.103Z,98273.50
2023-03-05T01:07:44.590Z,98260.16
2023-03-05T01:12:47.099Z,98264.38
2023-03-05T01:17:49.557Z,98254.72
2023-03-05T01:22:52.931Z,98248.88
2023-03-05T01:27:55.599Z,98252.31
2023-03-05T01:32:58.328Z,98252.72
2023-03-05T01:38:00.904Z,98241.06
2023-03-05T01:43:27.073Z,98238.03
2023-03-05T01:48:29.867Z,98237.72
2023-03-05T01:53:32.949Z,98231.91
2023-03-05T01:58:35.474Z,98224.56
2023-03-05T02:03:38.596Z,98220.72
2023-03-05T02:08:41.227Z,98208.34
2023-03-05T02:13:43.754Z,98201.41
2023-03-05T02:18:46.389Z,98197.91
2023-03-05T02:23:48.981Z,98197.00
2023-03-05T02:28:57.231Z,98187.91
2023-03-05T02:33:59.959Z,98191.25
2023-03-05T02:39:04.038Z,98182.84
2023-03-05T02:44:06.614Z,98184.06
2023-03-05T02:49:09.234Z,98177.16
2023-03-05T02:54:12.122Z,98169.81
2023-03-05T02:59:14.817Z,98173.66
2023-03-05T03:04:17.389Z,98169.56
2023-03-05T03:09:20.069Z,98157.28
2023-03-05T03:14:22.854Z,98149.03
2023-03-05T03:19:25.532Z,98148.25
2023-03-05T03:24:29.692Z,98149.81
2023-03-05T03:29:32.796Z,98142.03
2023-03-05T03:34:35.443Z,98143.28
2023-03-05T03:39:38.077Z,98132.88
2023-03-05T03:44:40.699Z,98135.06
2023-03-05T03:49:43.193Z,98128.00
2023-03-05T03:54:45.587Z,98111.44
2023-03-05T03:59:50.338Z,98113.81
2023-03-05T04:04:53.298Z,98118.13
2023-03-05T04:09:55.833Z,98111.56
2023-03-05T04:14:58.276Z,98103.28
2023-03-05T04:20:00.989Z,98111.47
2023-03-05T04:25:06.632Z,98106.66
2023-03-05T04:30:11.672Z,98103.56
2023-03-05T04:35:14.122Z,98087.34
2023-03-05T04:40:17.903Z,98095.09
2023-03-05T04:45:20.510Z,98088.94
2023-03-05T04:50:23.010Z,98084.28
2023-03-05T04:55:25.575Z,98076.22
2023-03-05T05:00:27.980Z,98084.19
2023-03-05T05:05:30.579Z,98084.72
2023-03-05T05:10:33.211Z,98074.59
2023-03-05T05:15:35.667Z,98068.34
2023-03-05T05:20:39.289Z,98059.84
2023-03-05T05:25:43.245Z,98065.34
2023-03-05T05:30:45.671Z,98072.19
2023-03-05T05:35:48.275Z,98067.72
2023-03-05T05:40:50.668Z,98073.13
2023-03-05T05:45:53.239Z,98070.78
2023-03-05T05:50:55.949Z,98071.31
2023-03-05T05:55:58.539Z,98067.81
2023-03-05T06:01:01.884Z,98068.34
2023-03-05T06:06:08.160Z,98070.22
2023-03-05T06:11:11.405Z,98069.94
2023-03-05T06:16:17.655Z,98070.81
2023-03-05T06:21:21.833Z,98067.50
2023-03-05T06:26:25.149Z,98066.09
2023-03-05T06:31:28.784Z,98070.53
2023-03-05T06:36:31.912Z,98054.59
2023-03-05T06:41:34.495Z,98066.44
2023-03-05T06:46:39.302Z,98061.16
2023-03-05T06:51:42.441Z,98067.34
2023-03-05T06:56:46.867Z,98053.56
2023-03-05T07:01:49.870Z,98057.41
2023-03-05T07:06:52.266Z,98053.97
2023-03-05T07:11:54.714Z,98059.94
2023-03-05T07:16:57.271Z,98054.66
2023-03-05T07:21:59.872Z,98049.66
2023-03-05T07:27:02.882Z,98052.91
2023-03-05T07:32:05.885Z,98048.50
2023-03-05T07:37:08.377Z,98048.56
2023-03-05T07:42:10.833Z,98037.41
2023-03-05T07:47:26.570Z,98041.41
2023-03-05T07:52:29.362Z,98038.59
2023-03-05T07:57:32.275Z,98040.31
2023-03-05T08:02:34.790Z,98039.28
2023-03-05T08:07:37.366Z,98042.28
2023-03-05T08:12:40.000Z,98037.50
2023-03-05T08:17:42.464Z,98039.38
2023-03-05T08:22:45.303Z,98034.66
2023-03-05T08:27:48.761Z,98037.75
2023-03-05T08:32:51.795Z,98031.19
2023-03-05T08:37:54.343Z,98023.53
2023-03-05T08:42:57.456Z,98033.06
2023-03-05T08:47:59.957Z,98021.38
2023-03-05T08:53:03.054Z,98019.69
2023-03-05T08:58:05.661Z,98017.66
2023-03-05T09:03:09.003Z,98011.47
2023-03-05T09:08:12.185Z,98012.56
2023-03-05T09:13:14.668Z,98007.06
2023-03-05T09:18:17.127Z,98004.06
2023-03-05T09:23:20.149Z,98003.91
2023-03-05T09:28:22.760Z,97995.13
2023-03-05T09:33:24.894Z,97990.81
2023-03-05T09:38:27.762Z,97984.00
2023-03-05T09:43:44.470Z,97986.81
2023-03-05T09:48:51.278Z,97979.63
2023-03-05T09:53:59.849Z,97980.97
2023-03-05T09:59:11.160Z,97973.75
2023-03-05T10:04:21.171Z,97974.19
2023-03-05T10:09:42.106Z,97970.19
2023-03-05T10:14:44.630Z,97961.47
2023-03-05T10:20:23.503Z,97963.81
2023-03-05T10:25:44.133Z,97958.72
2023-03-05T10:31:04.987Z,97959.50
2023-03-05T10:36:45.713Z,97952.41
2023-03-05T10:42:08.042Z,97937.56
2023-03-05T10:47:50.821Z,97940.03
2023-03-05T10:53:44.647Z,97930.38
2023-03-05T10:58:46.739Z,97926.22
2023-03-05T11:04:03.763Z,97924.78
2023-03-05T11:09:38.572Z,97916.53
2023-03-05T11:15:02.909Z,97906.97
2023-03-05T11:20:32.958Z,97899.53
2023-03-05T11:25:49.732Z,97901.06
2023-03-05T11:31:16.565Z,97901.50
2023-03-05T11:36:39.134Z,97891.34
2023-03-05T11:42:06.651Z,97890.44
2023-03-05T11:47:26.111Z,97886.53
2023-03-05T11:52:44.995Z,97884.06
2023-03-05T11:58:01.444Z,97869.88
2023-03-05T12:03:14.110Z,97862.16
2023-03-05T12:08:27.005Z,97857.81
2023-03-05T12:13:48.849Z,97852.06
2023-03-05T12:19:33.102Z,97848.34
2023-03-05T12:24:38.092Z,97840.31
2023-03-05T12:29:52.635Z,97830.75
2023-03-05T12:35:36.282Z,97829.69
2023-03-05T12:40:38.492Z,97818.16
2023-03-05T12:45:42.492Z,97808.06
2023-03-05T12:50:48.519Z,97793.72
2023-03-05T12:56:26.612Z,97787.53
2023-03-05T13:01:57.515Z,97787.72
2023-03-05T13:07:12.688Z,97781.59
2023-03-05T13:12:14.914Z,97779.94
2023-03-05T13:17:40.213Z,97777.47
2023-03-05T13:22:42.901Z,97775.34
2023-03-05T13:27:45.471Z,97769.91
2023-03-05T13:32:52.110Z,97765.94
2023-03-05T13:37:55.001Z,97758.41
2023-03-05T13:43:12.143Z,97757.00
2023-03-05T13:48:20.186Z,97750.50
2023-03-05T13:53:28.971Z,97748.19
2023-03-05T13:58:54.201Z,97747.38
2023-03-05T14:04:13.371Z,97746.47
2023-03-05T14:09:23.238Z,97736.13
2023-03-05T14:14:28.022Z,97731.88
2023-03-05T14:19:38.968Z,97727.78
2023-03-05T14:24:51.234Z,97720.34
2023-03-05T14:29:54.063Z,97717.88
2023-03-05T14:34:59.506Z,97706.25
2023-03-05T14:40:06.404Z,97706.47
2023-03-05T14:45:11.777Z,97694.53
2023-03-05T14:50:19.938Z,97695.03
2023-03-05T14:55:25.313Z,97685.84
2023-03-05T15:00:28.974Z,97680.06
2023-03-05T15:05:31.822Z,97670.47
2023-03-05T15:10:34.088Z,97667.63
2023-03-05T15:15:36.334Z,97661.91
2023-03-05T15:20:39.917Z,97654.78
2023-03-05T15:25:42.370Z,97651.31
2023-03-05T15:30:48.036Z,97647.56
2023-03-05T15:35:50.200Z,97649.06
2023-03-05T15:40:53.018Z,97639.44
2023-03-05T15:45:55.227Z,97636.97
2023-03-05T15:50:57.337Z,97628.28
2023-03-05T15:55:59.375Z,97629.91
2023-03-05T16:01:01.749Z,97624.97
2023-03-05T16:06:05.651Z,97614.16
2023-03-05T16:11:08.567Z,97604.97
2023-03-05T16:16:11.302Z,97606.75
2023-03-05T16:21:14.621Z,97591.66
2023-03-05T16:26:17.046Z,97583.31
2023-03-05T16:31:19.182Z,97582.84
2023-03-05T16:36:25.752Z,97579.53
2023-03-05T16:41:28.022Z,97580.00
2023-03-05T16:46:35.154Z,97571.53
2023-03-05T16:51:40.196Z,97567.03
2023-03-05T16:56:42.375Z,97566.13
2023-03-05T17:01:44.924Z,97558.56
2023-03-05T17:06:49.299Z,97562.84
2023-03-05T17:11:53.269Z,97558.41
2023-03-05T17:16:55.403Z,97558.63
2023-03-05T17:21:57.678Z,97563.97
2023-03-05T17:27:00.832Z,97557.63
2023-03-05T17:32:03.536Z,97564.22
2023-03-05T17:37:06.552Z,97561.56
2023-03-05T17:42:08.975Z,97559.88
2023-03-05T17:47:11.687Z,97566.34
2023-03-05T17:52:14.078Z,97567.47
2023-03-05T17:57:16.263Z,97566.66
2023-03-05T18:02:18.354Z,97563.03
2023-03-05T18:07:20.390Z,97554.16
2023-03-05T18:12:22.529Z,97549.28
2023-03-05T18:17:24.779Z,97547.19
2023-03-05T18:22:27.067Z,97547.63
2023-03-05T18:27:31.227Z,97542.69
2023-03-05T18:32:33.721Z,97532.84
2023-03-05T18:37:38.289Z,97536.13
2023-03-05T18:42:40.391Z,97534.34
2023-03-05T18:47:43.923Z,97531.41
2023-03-05T18:52:46.402Z,97531.94
2023-03-05T18:57:49.330Z,97536.72
2023-03-05T19:02:51.945Z,97531.66
2023-03-05T19:07:55.617Z,97529.13
2023-03-05T19:13:18.160Z,97522.53
2023-03-05T19:18:21.092Z,97516.47
2023-03-05T19:23:25.412Z,97515.16
2023-03-05T19:28:30.142Z,97513.31
2023-03-05T19:33:32.578Z,97509.41
2023-03-05T19:38:34.796Z,97500.84
2023-03-05T19:43:37.838Z,97504.81
2023-03-05T19:48:41.200Z,97502.03
2023-03-05T19:53:44.105Z,97490.44
2023-03-05T19:58:48.968Z,97492.84
2023-03-05T20:03:54.909Z,97489.06
2023-03-05T20:08:58.024Z,97491.72
2023-03-05T20:14:00.283Z,97485.69
2023-03-05T20:19:05.555Z,97474.22
2023-03-05T20:24:13.164Z,97465.78
2023-03-05T20:29:18.111Z,97463.13
2023-03-05T20:34:21.026Z,97461.66
2023-03-05T20:39:23.004Z,97462.09
2023-03-05T20:44:25.281Z,97456.44
2023-03-05T20:49:27.541Z,97448.22
2023-03-05T20:54:29.645Z,97444.53
2023-03-05T20:59:31.841Z,97445.13
2023-03-05T21:04:34.333Z,97442.38
2023-03-05T21:09:36.524Z,97440.81
2023-03-05T21:14:40.592Z,97434.22
2023-03-05T21:19:42.708Z,97422.78
2023-03-05T21:25:02.152Z,97422.84
2023-03-05T21:30:05.479Z,97421.91
2023-03-05T21:35:08.232Z,97411.19
2023-03-05T21:40:14.236Z,97409.28
2023-03-05T21:45:21.631Z,97396.41
2023-03-05T21:50:25.415Z,97393.22
2023-03-05T21:55:33.144Z,97387.09
2023-03-05T22:00:35.504Z,97379.84
2023-03-05T22:05:37.523Z,97368.09
2023-03-05T22:10:41.431Z,97361.34
2023-03-05T22:15:58.049Z,97357.66
2023-03-05T22:21:01.058Z,97355.09
2023-03-05T22:26:07.095Z,97354.59
2023-03-05T22:31:10.436Z,97347.69
2023-03-05T22:36:14.618Z,97333.38
2023-03-05T22:41:19.951Z,97329.75
2023-03-05T22:46:26.176Z,97332.66
2023-03-05T22:51:28.297Z,97321.00
2023-03-05T22:56:30.375Z,97318.78
2023-03-05T23:01:32.776Z,97314.50
2023-03-05T23:06:35.088Z,97306.66
2023-03-05T23:11:37.553Z,97300.97
2023-03-05T23:16:40.311Z,97300.31
2023-03-05T23:21:42.781Z,97287.44
2023-03-05T23:26:45.759Z,97279.69
2023-03-05T23:31:48.170Z,97273.00
2023-03-05T23:36:50.568Z,97263.59
2023-03-05T23:41:53.244Z,97267.31
2023-03-05T23:46:55.642Z,97266.41
2023-03-05T23:51:58.144Z,97261.00
2023-03-05T23:57:00.581Z,97255.00
